sensor_id;sensor_type;location;lat;lon;timestamp;P1;P2;P0
28647;PMS5003;17137;51.494;-0.262;2024-03-22T16:23:08;0;0;
28647;PMS5003;17137;51.494;-0.262;2024-03-22T16:23:39;1;1;
28647;PMS5003;17137;51.494;-0.262;2024-03-22T16:24:09;0;0;
28647;PMS5003;17137;51.494;-0.262;2024-03-22T16:24:39;0;0;
28647;PMS5003;17137;51.494;-0.262;2024-03-22T16:25:09;0;0;
28647;PMS5003;17137;51.494;-0.262;2024-03-22T16:25:39;0;0;
28647;PMS5003;17137;51.494;-0.262;2024-03-22T16:26:10;0;0;
28647;PMS5003;17137;51.494;-0.262;2024-03-22T16:26:40;0;0;
28647;PMS5003;17137;51.494;-0.262;2024-03-22T16:27:10;0;0;
28647;PMS5003;17137;51.494;-0.262;2024-03-22T16:27:40;0;0;
28647;PMS5003;17137;51.494;-0.262;2024-03-22T16:28:11;0;0;
28647;PMS5003;17137;51.494;-0.262;2024-03-22T16:28:41;0;0;
28647;PMS5003;17137;51.494;-0.262;2024-03-22T16:29:11;0;0;
28647;PMS5003;17137;51.494;-0.262;2024-03-22T16:29:42;0;0;
28647;PMS5003;17137;51.494;-0.262;2024-03-22T16:30:12;0;0;
28647;PMS5003;17137;51.494;-0.262;2024-03-22T16:30:42;0;0;
28647;PMS5003;17137;51.494;-0.262;2024-03-22T16:31:13;0;0;
28647;PMS5003;17137;51.494;-0.262;2024-03-22T16:31:43;0;0;
28647;PMS5003;17137;51.494;-0.262;2024-03-22T16:32:14;0;0;
28647;PMS5003;17137;51.494;-0.262;2024-03-22T16:32:44;0;0;
28647;PMS5003;17137;51.494;-0.262;2024-03-22T16:33:14;0;0;
28647;PMS5003;17137;51.494;-0.262;2024-03-22T16:33:45;0;0;
28647;PMS5003;17137;51.494;-0.262;2024-03-22T16:34:15;0;0;
28647;PMS5003;17137;51.494;-0.262;2024-03-22T16:34:45;0;0;
28647;PMS5003;17137;51.494;-0.262;2024-03-22T16:35:15;0;0;
28647;PMS5003;17137;51.494;-0.262;2024-03-22T16:35:46;0;0;
28647;PMS5003;17137;51.494;-0.262;2024-03-22T16:36:16;0;0;
28647;PMS5003;17137;51.494;-0.262;2024-03-22T16:36:46;0;0;
28647;PMS5003;17137;51.494;-0.262;2024-03-22T16:37:17;0;0;
28647;PMS5003;17137;51.494;-0.262;2024-03-22T16:37:47;1;0;
28647;PMS5003;17137;51.494;-0.262;2024-03-22T16:38:17;1;0;
28647;PMS5003;17137;51.494;-0.262;2024-03-22T16:38:47;1;0;
28647;PMS5003;17137;51.494;-0.262;2024-03-22T16:39:17;4;0;
28647;PMS5003;17137;51.494;-0.262;2024-03-22T16:39:48;4;0;
28647;PMS5003;17137;51.494;-0.262;2024-03-22T16:40:48;4;0;
28647;PMS5003;17137;51.494;-0.262;2024-03-22T16:41:18;4;0;
28647;PMS5003;17137;51.494;-0.262;2024-03-22T16:41:48;4;0;
28647;PMS5003;17137;51.494;-0.262;2024-03-22T16:42:19;4;0;
28647;PMS5003;17137;51.494;-0.262;2024-03-22T16:42:49;4;0;
28647;PMS5003;17137;51.494;-0.262;2024-03-22T16:43:20;4;0;
28647;PMS5003;17137;51.494;-0.262;2024-03-22T16:43:50;7;3;
28647;PMS5003;17137;51.494;-0.262;2024-03-22T16:44:20;7;3;
28647;PMS5003;17137;51.494;-0.262;2024-03-22T16:44:50;8;4;
28647;PMS5003;17137;51.494;-0.262;2024-03-22T16:45:21;8;4;
28647;PMS5003;17137;51.494;-0.262;2024-03-22T16:45:51;13;5;
28647;PMS5003;17137;51.494;-0.262;2024-03-22T16:46:21;13;7;
28647;PMS5003;17137;51.494;-0.262;2024-03-22T16:46:51;11;8;
28647;PMS5003;17137;51.494;-0.262;2024-03-22T16:47:22;11;8;
28647;PMS5003;17137;51.494;-0.262;2024-03-22T16:47:52;13;10;
28647;PMS5003;17137;51.494;-0.262;2024-03-22T16:48:22;13;10;
28647;PMS5003;17137;51.494;-0.262;2024-03-22T16:48:52;11;8;
28647;PMS5003;17137;51.494;-0.262;2024-03-22T16:49:23;11;8;
28647;PMS5003;17137;51.494;-0.262;2024-03-22T16:49:53;11;8;
28647;PMS5003;17137;51.494;-0.262;2024-03-22T16:50:23;11;8;
28647;PMS5003;17137;51.494;-0.262;2024-03-22T16:50:53;11;8;
28647;PMS5003;17137;51.494;-0.262;2024-03-22T16:51:24;10;8;
28647;PMS5003;17137;51.494;-0.262;2024-03-22T16:51:54;10;8;
28647;PMS5003;17137;51.494;-0.262;2024-03-22T16:52:24;10;8;
28647;PMS5003;17137;51.494;-0.262;2024-03-22T16:52:54;7;7;
28647;PMS5003;17137;51.494;-0.262;2024-03-22T16:53:25;7;7;
28647;PMS5003;17137;51.494;-0.262;2024-03-22T16:53:55;7;7;
28647;PMS5003;17137;51.494;-0.262;2024-03-22T16:54:25;5;5;
28647;PMS5003;17137;51.494;-0.262;2024-03-22T16:54:56;5;5;
28647;PMS5003;17137;51.494;-0.262;2024-03-22T16:55:26;5;5;
28647;PMS5003;17137;51.494;-0.262;2024-03-22T16:55:56;5;5;
28647;PMS5003;17137;51.494;-0.262;2024-03-22T16:56:27;5;5;
28647;PMS5003;17137;51.494;-0.262;2024-03-22T16:56:57;5;5;
28647;PMS5003;17137;51.494;-0.262;2024-03-22T16:57:27;5;5;
28647;PMS5003;17137;51.494;-0.262;2024-03-22T16:57:57;5;5;
28647;PMS5003;17137;51.494;-0.262;2024-03-22T16:58:27;5;5;
28647;PMS5003;17137;51.494;-0.262;2024-03-22T16:58:58;2;2;
28647;PMS5003;17137;51.494;-0.262;2024-03-22T16:59:28;2;2;
28647;PMS5003;17137;51.494;-0.262;2024-03-22T16:59:58;2;2;
28647;PMS5003;17137;51.494;-0.262;2024-03-22T17:00:28;2;2;
28647;PMS5003;17137;51.494;-0.262;2024-03-22T17:01:01;2;2;
28647;PMS5003;17137;51.494;-0.262;2024-03-22T17:01:32;2;2;
28647;PMS5003;17137;51.494;-0.262;2024-03-22T17:02:02;2;2;
28647;PMS5003;17137;51.494;-0.262;2024-03-22T17:02:33;2;2;
28647;PMS5003;17137;51.494;-0.262;2024-03-22T17:03:03;2;2;
28647;PMS5003;17137;51.494;-0.262;2024-03-22T17:03:34;2;1;
28647;PMS5003;17137;51.494;-0.262;2024-03-22T17:04:04;2;1;
28647;PMS5003;17137;51.494;-0.262;2024-03-22T17:04:34;2;1;
28647;PMS5003;17137;51.494;-0.262;2024-03-22T17:05:05;2;1;
28647;PMS5003;17137;51.494;-0.262;2024-03-22T17:05:36;2;1;
28647;PMS5003;17137;51.494;-0.262;2024-03-22T17:06:06;2;1;
28647;PMS5003;17137;51.494;-0.262;2024-03-22T17:06:37;2;1;
28647;PMS5003;17137;51.494;-0.262;2024-03-22T17:07:07;2;1;
28647;PMS5003;17137;51.494;-0.262;2024-03-22T17:07:37;2;1;
28647;PMS5003;17137;51.494;-0.262;2024-03-22T17:08:08;2;1;
28647;PMS5003;17137;51.494;-0.262;2024-03-22T17:08:38;2;1;
28647;PMS5003;17137;51.494;-0.262;2024-03-22T17:09:08;2;1;
28647;PMS5003;17137;51.494;-0.262;2024-03-22T17:09:43;2;1;
28647;PMS5003;17137;51.494;-0.262;2024-03-22T17:10:14;2;1;
28647;PMS5003;17137;51.494;-0.262;2024-03-22T17:10:44;2;1;
28647;PMS5003;17137;51.494;-0.262;2024-03-22T17:11:15;2;1;
28647;PMS5003;17137;51.494;-0.262;2024-03-22T17:11:45;2;1;
28647;PMS5003;17137;51.494;-0.262;2024-03-22T17:12:15;2;1;
28647;PMS5003;17137;51.494;-0.262;2024-03-22T17:12:45;2;1;
28647;PMS5003;17137;51.494;-0.262;2024-03-22T17:13:16;2;1;
28647;PMS5003;17137;51.494;-0.262;2024-03-22T17:13:46;2;1;
28647;PMS5003;17137;51.494;-0.262;2024-03-22T17:14:16;2;1;
28647;PMS5003;17137;51.494;-0.262;2024-03-22T17:14:46;2;1;
28647;PMS5003;17137;51.494;-0.262;2024-03-22T17:15:17;2;1;
28647;PMS5003;17137;51.494;-0.262;2024-03-22T17:15:52;4;1;
28647;PMS5003;17137;51.494;-0.262;2024-03-22T17:16:23;4;1;
28647;PMS5003;17137;51.494;-0.262;2024-03-22T17:16:53;4;1;
28647;PMS5003;17137;51.494;-0.262;2024-03-22T17:17:23;8;2;
28647;PMS5003;17137;51.494;-0.262;2024-03-22T17:17:53;8;2;
28647;PMS5003;17137;51.494;-0.262;2024-03-22T17:18:23;8;2;
28647;PMS5003;17137;51.494;-0.262;2024-03-22T17:18:54;8;2;
28647;PMS5003;17137;51.494;-0.262;2024-03-22T17:19:24;8;2;
28647;PMS5003;17137;51.494;-0.262;2024-03-22T17:19:55;8;2;
28647;PMS5003;17137;51.494;-0.262;2024-03-22T17:20:25;11;4;
28647;PMS5003;17137;51.494;-0.262;2024-03-22T17:20:55;11;4;
28647;PMS5003;17137;51.494;-0.262;2024-03-22T17:21:25;11;4;
28647;PMS5003;17137;51.494;-0.262;2024-03-22T17:21:55;9;2;
28647;PMS5003;17137;51.494;-0.262;2024-03-22T17:22:26;9;2;
28647;PMS5003;17137;51.494;-0.262;2024-03-22T17:22:56;10;2;
28647;PMS5003;17137;51.494;-0.262;2024-03-22T17:23:27;10;2;
28647;PMS5003;17137;51.494;-0.262;2024-03-22T17:23:57;10;2;
28647;PMS5003;17137;51.494;-0.262;2024-03-22T17:24:28;9;2;
28647;PMS5003;17137;51.494;-0.262;2024-03-22T17:24:58;9;2;
28647;PMS5003;17137;51.494;-0.262;2024-03-22T17:25:28;9;2;
28647;PMS5003;17137;51.494;-0.262;2024-03-22T17:25:58;9;2;
28647;PMS5003;17137;51.494;-0.262;2024-03-22T17:26:29;9;2;
28647;PMS5003;17137;51.494;-0.262;2024-03-22T17:26:59;9;2;
28647;PMS5003;17137;51.494;-0.262;2024-03-22T17:27:29;9;2;
28647;PMS5003;17137;51.494;-0.262;2024-03-22T17:27:59;10;2;
28647;PMS5003;17137;51.494;-0.262;2024-03-22T17:28:30;10;2;
28647;PMS5003;17137;51.494;-0.262;2024-03-22T17:29:00;10;2;
28647;PMS5003;17137;51.494;-0.262;2024-03-22T17:29:30;10;2;
28647;PMS5003;17137;51.494;-0.262;2024-03-22T17:30:00;10;2;
28647;PMS5003;17137;51.494;-0.262;2024-03-22T17:30:31;10;2;
28647;PMS5003;17137;51.494;-0.262;2024-03-22T17:31:01;10;2;
28647;PMS5003;17137;51.494;-0.262;2024-03-22T17:31:32;10;2;
28647;PMS5003;17137;51.494;-0.262;2024-03-22T17:32:02;10;2;
28647;PMS5003;17137;51.494;-0.262;2024-03-22T17:32:33;7;1;
28647;PMS5003;17137;51.494;-0.262;2024-03-22T17:33:04;7;1;
28647;PMS5003;17137;51.494;-0.262;2024-03-22T17:33:34;7;1;
28647;PMS5003;17137;51.494;-0.262;2024-03-22T17:34:04;7;1;
28647;PMS5003;17137;51.494;-0.262;2024-03-22T17:34:35;7;1;
28647;PMS5003;17137;51.494;-0.262;2024-03-22T17:35:05;7;1;
28647;PMS5003;17137;51.494;-0.262;2024-03-22T17:35:36;5;1;
28647;PMS5003;17137;51.494;-0.262;2024-03-22T17:36:06;5;1;
28647;PMS5003;17137;51.494;-0.262;2024-03-22T17:36:37;5;1;
28647;PMS5003;17137;51.494;-0.262;2024-03-22T17:37:07;5;1;
28647;PMS5003;17137;51.494;-0.262;2024-03-22T17:37:37;5;1;
28647;PMS5003;17137;51.494;-0.262;2024-03-22T17:38:08;5;1;
28647;PMS5003;17137;51.494;-0.262;2024-03-22T17:38:38;8;1;
28647;PMS5003;17137;51.494;-0.262;2024-03-22T17:39:08;8;1;
28647;PMS5003;17137;51.494;-0.262;2024-03-22T17:39:38;8;1;
28647;PMS5003;17137;51.494;-0.262;2024-03-22T17:40:10;6;1;
28647;PMS5003;17137;51.494;-0.262;2024-03-22T17:40:41;6;1;
28647;PMS5003;17137;51.494;-0.262;2024-03-22T17:41:11;6;1;
28647;PMS5003;17137;51.494;-0.262;2024-03-22T17:41:41;6;0;
28647;PMS5003;17137;51.494;-0.262;2024-03-22T17:42:12;6;0;
28647;PMS5003;17137;51.494;-0.262;2024-03-22T17:42:42;6;0;
28647;PMS5003;17137;51.494;-0.262;2024-03-22T17:43:12;8;1;
28647;PMS5003;17137;51.494;-0.262;2024-03-22T17:43:43;8;1;
28647;PMS5003;17137;51.494;-0.262;2024-03-22T17:44:15;8;1;
28647;PMS5003;17137;51.494;-0.262;2024-03-22T17:44:46;9;0;
28647;PMS5003;17137;51.494;-0.262;2024-03-22T17:45:17;9;0;
28647;PMS5003;17137;51.494;-0.262;2024-03-22T17:45:54;9;0;
28647;PMS5003;17137;51.494;-0.262;2024-03-22T17:46:25;8;1;
28647;PMS5003;17137;51.494;-0.262;2024-03-22T17:46:55;8;1;
28647;PMS5003;17137;51.494;-0.262;2024-03-22T17:47:26;8;1;
28647;PMS5003;17137;51.494;-0.262;2024-03-22T17:47:56;7;1;
28647;PMS5003;17137;51.494;-0.262;2024-03-22T17:48:27;7;1;
28647;PMS5003;17137;51.494;-0.262;2024-03-22T17:48:57;7;1;
28647;PMS5003;17137;51.494;-0.262;2024-03-22T17:49:27;8;1;
28647;PMS5003;17137;51.494;-0.262;2024-03-22T17:49:58;8;1;
28647;PMS5003;17137;51.494;-0.262;2024-03-22T17:50:28;8;1;
28647;PMS5003;17137;51.494;-0.262;2024-03-22T17:50:59;5;2;
28647;PMS5003;17137;51.494;-0.262;2024-03-22T17:51:29;5;2;
28647;PMS5003;17137;51.494;-0.262;2024-03-22T17:52:00;5;2;
28647;PMS5003;17137;51.494;-0.262;2024-03-22T17:52:30;7;2;
28647;PMS5003;17137;51.494;-0.262;2024-03-22T17:53:01;7;2;
28647;PMS5003;17137;51.494;-0.262;2024-03-22T17:53:31;7;2;
28647;PMS5003;17137;51.494;-0.262;2024-03-22T17:54:02;5;2;
28647;PMS5003;17137;51.494;-0.262;2024-03-22T17:54:33;5;2;
28647;PMS5003;17137;51.494;-0.262;2024-03-22T17:55:03;5;2;
28647;PMS5003;17137;51.494;-0.262;2024-03-22T17:55:34;5;2;
28647;PMS5003;17137;51.494;-0.262;2024-03-22T17:56:05;5;2;
28647;PMS5003;17137;51.494;-0.262;2024-03-22T17:56:40;5;2;
28647;PMS5003;17137;51.494;-0.262;2024-03-22T17:57:11;7;4;
28647;PMS5003;17137;51.494;-0.262;2024-03-22T17:57:41;7;4;
28647;PMS5003;17137;51.494;-0.262;2024-03-22T17:58:12;7;4;
28647;PMS5003;17137;51.494;-0.262;2024-03-22T17:58:42;7;4;
28647;PMS5003;17137;51.494;-0.262;2024-03-22T17:59:13;7;4;
28647;PMS5003;17137;51.494;-0.262;2024-03-22T17:59:44;7;4;
28647;PMS5003;17137;51.494;-0.262;2024-03-22T18:00:14;4;4;
28647;PMS5003;17137;51.494;-0.262;2024-03-22T18:00:45;4;4;
28647;PMS5003;17137;51.494;-0.262;2024-03-22T18:01:15;4;4;
28647;PMS5003;17137;51.494;-0.262;2024-03-22T18:01:45;4;2;
28647;PMS5003;17137;51.494;-0.262;2024-03-22T18:02:16;4;2;
28647;PMS5003;17137;51.494;-0.262;2024-03-22T18:02:46;4;2;
28647;PMS5003;17137;51.494;-0.262;2024-03-22T18:03:16;4;2;
28647;PMS5003;17137;51.494;-0.262;2024-03-22T18:03:47;4;2;
28647;PMS5003;17137;51.494;-0.262;2024-03-22T18:04:23;4;2;
28647;PMS5003;17137;51.494;-0.262;2024-03-22T18:04:53;2;1;
28647;PMS5003;17137;51.494;-0.262;2024-03-22T18:05:24;2;1;
28647;PMS5003;17137;51.494;-0.262;2024-03-22T18:05:54;2;1;
28647;PMS5003;17137;51.494;-0.262;2024-03-22T18:06:25;2;1;
28647;PMS5003;17137;51.494;-0.262;2024-03-22T18:06:55;2;1;
28647;PMS5003;17137;51.494;-0.262;2024-03-22T18:07:25;2;1;
28647;PMS5003;17137;51.494;-0.262;2024-03-22T18:08:01;2;1;
28647;PMS5003;17137;51.494;-0.262;2024-03-22T18:08:32;2;1;
28647;PMS5003;17137;51.494;-0.262;2024-03-22T18:09:03;2;1;
28647;PMS5003;17137;51.494;-0.262;2024-03-22T18:09:33;2;1;
28647;PMS5003;17137;51.494;-0.262;2024-03-22T18:10:04;2;1;
28647;PMS5003;17137;51.494;-0.262;2024-03-22T18:10:35;2;1;
28647;PMS5003;17137;51.494;-0.262;2024-03-22T18:11:05;2;1;
28647;PMS5003;17137;51.494;-0.262;2024-03-22T18:11:36;2;1;
28647;PMS5003;17137;51.494;-0.262;2024-03-22T18:12:07;2;1;
28647;PMS5003;17137;51.494;-0.262;2024-03-22T18:12:37;1;1;
28647;PMS5003;17137;51.494;-0.262;2024-03-22T18:13:08;1;1;
28647;PMS5003;17137;51.494;-0.262;2024-03-22T18:13:38;1;1;
28647;PMS5003;17137;51.494;-0.262;2024-03-22T18:14:08;2;2;
28647;PMS5003;17137;51.494;-0.262;2024-03-22T18:14:39;2;2;
28647;PMS5003;17137;51.494;-0.262;2024-03-22T18:15:10;2;2;
28647;PMS5003;17137;51.494;-0.262;2024-03-22T18:15:40;2;2;
28647;PMS5003;17137;51.494;-0.262;2024-03-22T18:16:10;2;2;
28647;PMS5003;17137;51.494;-0.262;2024-03-22T18:16:41;2;2;
28647;PMS5003;17137;51.494;-0.262;2024-03-22T18:17:11;2;2;
28647;PMS5003;17137;51.494;-0.262;2024-03-22T18:17:42;2;2;
28647;PMS5003;17137;51.494;-0.262;2024-03-22T18:18:12;2;2;
28647;PMS5003;17137;51.494;-0.262;2024-03-22T18:18:42;2;2;
28647;PMS5003;17137;51.494;-0.262;2024-03-22T18:19:14;2;2;
28647;PMS5003;17137;51.494;-0.262;2024-03-22T18:19:45;2;2;
28647;PMS5003;17137;51.494;-0.262;2024-03-22T18:20:16;2;2;
28647;PMS5003;17137;51.494;-0.262;2024-03-22T18:20:47;2;2;
28647;PMS5003;17137;51.494;-0.262;2024-03-22T18:21:17;2;2;
28647;PMS5003;17137;51.494;-0.262;2024-03-22T18:21:47;4;4;
28647;PMS5003;17137;51.494;-0.262;2024-03-22T18:22:18;4;4;
28647;PMS5003;17137;51.494;-0.262;2024-03-22T18:22:48;4;4;
28647;PMS5003;17137;51.494;-0.262;2024-03-22T18:23:19;4;4;
28647;PMS5003;17137;51.494;-0.262;2024-03-22T18:23:49;4;4;
28647;PMS5003;17137;51.494;-0.262;2024-03-22T18:24:20;4;4;
28647;PMS5003;17137;51.494;-0.262;2024-03-22T18:24:50;4;4;
28647;PMS5003;17137;51.494;-0.262;2024-03-22T18:25:50;4;4;
28647;PMS5003;17137;51.494;-0.262;2024-03-22T18:26:22;5;2;
28647;PMS5003;17137;51.494;-0.262;2024-03-22T18:26:52;5;2;
28647;PMS5003;17137;51.494;-0.262;2024-03-22T18:27:23;5;2;
28647;PMS5003;17137;51.494;-0.262;2024-03-22T18:27:54;5;2;
28647;PMS5003;17137;51.494;-0.262;2024-03-22T18:28:25;5;2;
28647;PMS5003;17137;51.494;-0.262;2024-03-22T18:28:56;5;2;
28647;PMS5003;17137;51.494;-0.262;2024-03-22T18:29:31;4;1;
28647;PMS5003;17137;51.494;-0.262;2024-03-22T18:30:12;4;1;
28647;PMS5003;17137;51.494;-0.262;2024-03-22T18:30:44;4;1;
28647;PMS5003;17137;51.494;-0.262;2024-03-22T18:31:15;4;1;
28647;PMS5003;17137;51.494;-0.262;2024-03-22T18:31:46;4;1;
28647;PMS5003;17137;51.494;-0.262;2024-03-22T18:32:16;4;1;
28647;PMS5003;17137;51.494;-0.262;2024-03-22T18:32:47;4;1;
28647;PMS5003;17137;51.494;-0.262;2024-03-22T18:33:18;4;1;
28647;PMS5003;17137;51.494;-0.262;2024-03-22T18:33:48;4;1;
28647;PMS5003;17137;51.494;-0.262;2024-03-22T18:34:19;4;2;
28647;PMS5003;17137;51.494;-0.262;2024-03-22T18:34:49;4;2;
28647;PMS5003;17137;51.494;-0.262;2024-03-22T18:35:20;4;2;
28647;PMS5003;17137;51.494;-0.262;2024-03-22T18:35:51;4;2;
28647;PMS5003;17137;51.494;-0.262;2024-03-22T18:36:22;4;2;
28647;PMS5003;17137;51.494;-0.262;2024-03-22T18:36:53;4;2;
28647;PMS5003;17137;51.494;-0.262;2024-03-22T18:37:23;4;1;
28647;PMS5003;17137;51.494;-0.262;2024-03-22T18:37:53;4;1;
28647;PMS5003;17137;51.494;-0.262;2024-03-22T18:38:24;4;1;
28647;PMS5003;17137;51.494;-0.262;2024-03-22T18:38:55;4;1;
28647;PMS5003;17137;51.494;-0.262;2024-03-22T18:39:25;4;1;
28647;PMS5003;17137;51.494;-0.262;2024-03-22T18:39:55;4;1;
28647;PMS5003;17137;51.494;-0.262;2024-03-22T18:40:26;4;2;
28647;PMS5003;17137;51.494;-0.262;2024-03-22T18:40:56;4;2;
28647;PMS5003;17137;51.494;-0.262;2024-03-22T18:41:27;4;2;
28647;PMS5003;17137;51.494;-0.262;2024-03-22T18:41:59;2;2;
28647;PMS5003;17137;51.494;-0.262;2024-03-22T18:42:29;2;2;
28647;PMS5003;17137;51.494;-0.262;2024-03-22T18:42:59;2;2;
28647;PMS5003;17137;51.494;-0.262;2024-03-22T18:43:35;2;2;
28647;PMS5003;17137;51.494;-0.262;2024-03-22T18:44:05;2;2;
28647;PMS5003;17137;51.494;-0.262;2024-03-22T18:44:36;2;2;
28647;PMS5003;17137;51.494;-0.262;2024-03-22T18:45:08;2;2;
28647;PMS5003;17137;51.494;-0.262;2024-03-22T18:45:44;2;2;
28647;PMS5003;17137;51.494;-0.262;2024-03-22T18:46:15;2;2;
28647;PMS5003;17137;51.494;-0.262;2024-03-22T18:46:45;5;2;
28647;PMS5003;17137;51.494;-0.262;2024-03-22T18:47:16;5;2;
28647;PMS5003;17137;51.494;-0.262;2024-03-22T18:47:46;5;2;
28647;PMS5003;17137;51.494;-0.262;2024-03-22T18:48:22;5;4;
28647;PMS5003;17137;51.494;-0.262;2024-03-22T18:48:52;5;4;
28647;PMS5003;17137;51.494;-0.262;2024-03-22T18:49:23;5;4;
28647;PMS5003;17137;51.494;-0.262;2024-03-22T18:49:58;5;2;
28647;PMS5003;17137;51.494;-0.262;2024-03-22T18:50:29;5;2;
28647;PMS5003;17137;51.494;-0.262;2024-03-22T18:50:59;5;2;
28647;PMS5003;17137;51.494;-0.262;2024-03-22T18:51:30;4;2;
28647;PMS5003;17137;51.494;-0.262;2024-03-22T18:52:00;4;2;
28647;PMS5003;17137;51.494;-0.262;2024-03-22T18:52:31;4;2;
28647;PMS5003;17137;51.494;-0.262;2024-03-22T18:53:01;5;2;
28647;PMS5003;17137;51.494;-0.262;2024-03-22T18:53:32;5;2;
28647;PMS5003;17137;51.494;-0.262;2024-03-22T18:54:03;5;2;
28647;PMS5003;17137;51.494;-0.262;2024-03-22T18:54:33;6;2;
28647;PMS5003;17137;51.494;-0.262;2024-03-22T18:55:05;6;2;
28647;PMS5003;17137;51.494;-0.262;2024-03-22T18:55:35;6;2;
28647;PMS5003;17137;51.494;-0.262;2024-03-22T18:56:06;6;2;
28647;PMS5003;17137;51.494;-0.262;2024-03-22T18:56:36;6;2;
28647;PMS5003;17137;51.494;-0.262;2024-03-22T18:57:07;6;2;
28647;PMS5003;17137;51.494;-0.262;2024-03-22T18:57:42;6;4;
28647;PMS5003;17137;51.494;-0.262;2024-03-22T18:58:12;6;4;
28647;PMS5003;17137;51.494;-0.262;2024-03-22T18:58:43;6;4;
28647;PMS5003;17137;51.494;-0.262;2024-03-22T18:59:14;8;4;
28647;PMS5003;17137;51.494;-0.262;2024-03-22T18:59:44;8;4;
28647;PMS5003;17137;51.494;-0.262;2024-03-22T19:00:20;8;4;
28647;PMS5003;17137;51.494;-0.262;2024-03-22T19:00:55;9;4;
28647;PMS5003;17137;51.494;-0.262;2024-03-22T19:01:26;9;4;
28647;PMS5003;17137;51.494;-0.262;2024-03-22T19:01:56;9;4;
28647;PMS5003;17137;51.494;-0.262;2024-03-22T19:02:27;6;4;
28647;PMS5003;17137;51.494;-0.262;2024-03-22T19:02:57;6;4;
28647;PMS5003;17137;51.494;-0.262;2024-03-22T19:03:33;6;4;
28647;PMS5003;17137;51.494;-0.262;2024-03-22T19:04:03;5;2;
28647;PMS5003;17137;51.494;-0.262;2024-03-22T19:04:34;5;2;
28647;PMS5003;17137;51.494;-0.262;2024-03-22T19:05:14;5;2;
28647;PMS5003;17137;51.494;-0.262;2024-03-22T19:05:45;5;2;
28647;PMS5003;17137;51.494;-0.262;2024-03-22T19:06:15;5;2;
28647;PMS5003;17137;51.494;-0.262;2024-03-22T19:06:47;5;2;
28647;PMS5003;17137;51.494;-0.262;2024-03-22T19:07:28;5;2;
28647;PMS5003;17137;51.494;-0.262;2024-03-22T19:07:58;5;2;
28647;PMS5003;17137;51.494;-0.262;2024-03-22T19:08:28;5;2;
28647;PMS5003;17137;51.494;-0.262;2024-03-22T19:08:58;5;2;
28647;PMS5003;17137;51.494;-0.262;2024-03-22T19:09:30;5;2;
28647;PMS5003;17137;51.494;-0.262;2024-03-22T19:10:01;5;2;
28647;PMS5003;17137;51.494;-0.262;2024-03-22T19:10:31;2;1;
28647;PMS5003;17137;51.494;-0.262;2024-03-22T19:11:01;2;1;
28647;PMS5003;17137;51.494;-0.262;2024-03-22T19:11:32;2;1;
28647;PMS5003;17137;51.494;-0.262;2024-03-22T19:12:03;2;1;
28647;PMS5003;17137;51.494;-0.262;2024-03-22T19:12:34;2;1;
28647;PMS5003;17137;51.494;-0.262;2024-03-22T19:13:05;2;1;
28647;PMS5003;17137;51.494;-0.262;2024-03-22T19:13:35;2;1;
28647;PMS5003;17137;51.494;-0.262;2024-03-22T19:14:10;2;1;
28647;PMS5003;17137;51.494;-0.262;2024-03-22T19:14:42;2;1;
28647;PMS5003;17137;51.494;-0.262;2024-03-22T19:15:16;1;1;
28647;PMS5003;17137;51.494;-0.262;2024-03-22T19:15:53;1;1;
28647;PMS5003;17137;51.494;-0.262;2024-03-22T19:16:23;1;1;
28647;PMS5003;17137;51.494;-0.262;2024-03-22T19:16:54;1;1;
28647;PMS5003;17137;51.494;-0.262;2024-03-22T19:17:29;1;1;
28647;PMS5003;17137;51.494;-0.262;2024-03-22T19:18:00;1;1;
28647;PMS5003;17137;51.494;-0.262;2024-03-22T19:18:30;1;1;
28647;PMS5003;17137;51.494;-0.262;2024-03-22T19:19:01;1;1;
28647;PMS5003;17137;51.494;-0.262;2024-03-22T19:19:32;1;1;
28647;PMS5003;17137;51.494;-0.262;2024-03-22T19:20:03;1;1;
28647;PMS5003;17137;51.494;-0.262;2024-03-22T19:20:41;1;1;
28647;PMS5003;17137;51.494;-0.262;2024-03-22T19:21:17;1;1;
28647;PMS5003;17137;51.494;-0.262;2024-03-22T19:21:53;1;1;
28647;PMS5003;17137;51.494;-0.262;2024-03-22T19:22:23;1;1;
28647;PMS5003;17137;51.494;-0.262;2024-03-22T19:22:54;1;1;
28647;PMS5003;17137;51.494;-0.262;2024-03-22T19:23:24;1;1;
28647;PMS5003;17137;51.494;-0.262;2024-03-22T19:23:55;1;1;
28647;PMS5003;17137;51.494;-0.262;2024-03-22T19:24:25;1;1;
28647;PMS5003;17137;51.494;-0.262;2024-03-22T19:24:56;1;1;
28647;PMS5003;17137;51.494;-0.262;2024-03-22T19:25:26;1;1;
28647;PMS5003;17137;51.494;-0.262;2024-03-22T19:25:56;1;1;
28647;PMS5003;17137;51.494;-0.262;2024-03-22T19:26:32;2;2;
28647;PMS5003;17137;51.494;-0.262;2024-03-22T19:27:02;2;2;
28647;PMS5003;17137;51.494;-0.262;2024-03-22T19:27:33;2;2;
28647;PMS5003;17137;51.494;-0.262;2024-03-22T19:28:04;1;1;
28647;PMS5003;17137;51.494;-0.262;2024-03-22T19:28:34;1;1;
28647;PMS5003;17137;51.494;-0.262;2024-03-22T19:29:11;1;1;
28647;PMS5003;17137;51.494;-0.262;2024-03-22T19:29:42;1;1;
28647;PMS5003;17137;51.494;-0.262;2024-03-22T19:30:13;1;1;
28647;PMS5003;17137;51.494;-0.262;2024-03-22T19:30:44;1;1;
28647;PMS5003;17137;51.494;-0.262;2024-03-22T19:31:14;1;1;
28647;PMS5003;17137;51.494;-0.262;2024-03-22T19:31:45;1;1;
28647;PMS5003;17137;51.494;-0.262;2024-03-22T19:32:16;1;1;
28647;PMS5003;17137;51.494;-0.262;2024-03-22T19:32:46;4;2;
28647;PMS5003;17137;51.494;-0.262;2024-03-22T19:33:16;4;2;
28647;PMS5003;17137;51.494;-0.262;2024-03-22T19:33:47;4;2;
28647;PMS5003;17137;51.494;-0.262;2024-03-22T19:34:17;4;2;
28647;PMS5003;17137;51.494;-0.262;2024-03-22T19:34:48;4;2;
28647;PMS5003;17137;51.494;-0.262;2024-03-22T19:35:18;4;2;
28647;PMS5003;17137;51.494;-0.262;2024-03-22T19:35:49;4;2;
28647;PMS5003;17137;51.494;-0.262;2024-03-22T19:36:19;4;2;
28647;PMS5003;17137;51.494;-0.262;2024-03-22T19:36:50;4;2;
28647;PMS5003;17137;51.494;-0.262;2024-03-22T19:37:21;4;2;
28647;PMS5003;17137;51.494;-0.262;2024-03-22T19:37:52;4;2;
28647;PMS5003;17137;51.494;-0.262;2024-03-22T19:38:23;4;2;
28647;PMS5003;17137;51.494;-0.262;2024-03-22T19:38:53;4;2;
28647;PMS5003;17137;51.494;-0.262;2024-03-22T19:39:23;4;2;
28647;PMS5003;17137;51.494;-0.262;2024-03-22T19:39:59;4;2;
28647;PMS5003;17137;51.494;-0.262;2024-03-22T19:40:29;5;2;
28647;PMS5003;17137;51.494;-0.262;2024-03-22T19:41:05;5;2;
28647;PMS5003;17137;51.494;-0.262;2024-03-22T19:41:35;5;2;
28647;PMS5003;17137;51.494;-0.262;2024-03-22T19:42:06;6;2;
28647;PMS5003;17137;51.494;-0.262;2024-03-22T19:42:37;6;2;
28647;PMS5003;17137;51.494;-0.262;2024-03-22T19:43:07;6;2;
28647;PMS5003;17137;51.494;-0.262;2024-03-22T19:43:37;8;2;
28647;PMS5003;17137;51.494;-0.262;2024-03-22T19:44:08;8;2;
28647;PMS5003;17137;51.494;-0.262;2024-03-22T19:44:44;8;2;
28647;PMS5003;17137;51.494;-0.262;2024-03-22T19:45:14;8;2;
28647;PMS5003;17137;51.494;-0.262;2024-03-22T19:45:45;8;2;
28647;PMS5003;17137;51.494;-0.262;2024-03-22T19:46:16;8;2;
28647;PMS5003;17137;51.494;-0.262;2024-03-22T19:46:46;8;2;
28647;PMS5003;17137;51.494;-0.262;2024-03-22T19:47:17;8;2;
28647;PMS5003;17137;51.494;-0.262;2024-03-22T19:47:47;8;2;
28647;PMS5003;17137;51.494;-0.262;2024-03-22T19:48:17;5;1;
28647;PMS5003;17137;51.494;-0.262;2024-03-22T19:48:48;5;1;
28647;PMS5003;17137;51.494;-0.262;2024-03-22T19:49:23;5;1;
28647;PMS5003;17137;51.494;-0.262;2024-03-22T19:49:54;5;1;
28647;PMS5003;17137;51.494;-0.262;2024-03-22T19:50:29;5;1;
28647;PMS5003;17137;51.494;-0.262;2024-03-22T19:51:00;5;1;
28647;PMS5003;17137;51.494;-0.262;2024-03-22T19:51:30;5;1;
28647;PMS5003;17137;51.494;-0.262;2024-03-22T19:52:11;5;1;
28647;PMS5003;17137;51.494;-0.262;2024-03-22T19:52:41;5;1;